createdAt,value
2023-05-11T00:00:33.069Z,17.70
2023-05-11T00:02:59.875Z,17.70
2023-05-11T00:05:26.612Z,17.70
2023-05-11T00:07:53.189Z,17.60
2023-05-11T00:10:20.090Z,17.50
2023-05-11T00:12:46.907Z,17.50
2023-05-11T00:15:13.499Z,17.50
2023-05-11T00:17:40.121Z,17.50
2023-05-11T00:20:07.665Z,17.40
2023-05-11T00:22:34.286Z,17.40
2023-05-11T00:25:00.927Z,17.40
2023-05-11T00:27:27.593Z,17.30
2023-05-11T00:29:54.191Z,17.30
2023-05-11T00:32:20.829Z,17.40
2023-05-11T00:34:47.477Z,17.40
2023-05-11T00:37:14.035Z,17.30
2023-05-11T00:39:41.492Z,17.20
2023-05-11T00:42:08.153Z,17.20
2023-05-11T00:44:34.762Z,17.20
2023-05-11T00:47:01.460Z,17.30
2023-05-11T00:49:29.705Z,17.10
2023-05-11T00:51:57.729Z,17.00
2023-05-11T00:54:24.648Z,16.90
2023-05-11T00:56:51.758Z,16.90
2023-05-11T00:59:18.755Z,16.90
2023-05-11T01:01:45.575Z,16.90
2023-05-11T01:04:12.761Z,16.80
2023-05-11T01:06:42.486Z,16.80
2023-05-11T01:09:13.036Z,16.80
2023-05-11T01:11:45.946Z,16.80
2023-05-11T01:14:24.712Z,16.80
2023-05-11T01:16:55.794Z,16.80
2023-05-11T01:19:28.556Z,16.80
2023-05-11T01:21:55.294Z,16.90
2023-05-11T01:24:30.981Z,16.70
2023-05-11T01:26:57.662Z,16.60
2023-05-11T01:29:24.268Z,16.70
2023-05-11T01:31:52.190Z,16.70
2023-05-11T01:34:21.362Z,16.70
2023-05-11T01:36:58.678Z,16.60
2023-05-11T01:39:30.330Z,16.60
2023-05-11T01:41:58.330Z,16.60
2023-05-11T01:44:25.754Z,16.50
2023-05-11T01:46:53.144Z,16.50
2023-05-11T01:49:20.282Z,16.60
2023-05-11T01:51:49.429Z,16.60
2023-05-11T01:54:17.023Z,16.50
2023-05-11T01:56:44.442Z,16.50
2023-05-11T01:59:12.063Z,16.50
2023-05-11T02:01:39.496Z,16.50
2023-05-11T02:04:06.727Z,16.40
2023-05-11T02:06:34.318Z,16.40
2023-05-11T02:09:01.744Z,16.30
2023-05-11T02:11:29.214Z,16.20
2023-05-11T02:13:56.882Z,16.20
2023-05-11T02:16:24.599Z,16.20
2023-05-11T02:18:52.283Z,16.20
2023-05-11T02:21:19.942Z,16.20
2023-05-11T02:23:47.285Z,16.20
2023-05-11T02:26:14.764Z,16.20
2023-05-11T02:28:41.391Z,16.20
2023-05-11T02:31:10.280Z,16.20
2023-05-11T02:33:39.592Z,16.30
2023-05-11T02:36:06.731Z,16.30
2023-05-11T02:38:34.406Z,16.30
2023-05-11T02:41:03.960Z,16.30
2023-05-11T02:43:35.200Z,16.20
2023-05-11T02:46:06.882Z,16.20
2023-05-11T02:48:39.674Z,16.20
2023-05-11T02:51:07.387Z,16.10
2023-05-11T02:53:34.971Z,16.10
2023-05-11T02:56:01.678Z,16.10
2023-05-11T02:58:28.990Z,16.00
2023-05-11T03:00:56.400Z,16.00
2023-05-11T03:03:23.449Z,16.00
2023-05-11T03:05:50.311Z,16.00
2023-05-11T03:08:16.934Z,16.00
2023-05-11T03:10:44.327Z,16.00
2023-05-11T03:13:11.394Z,16.00
2023-05-11T03:15:38.105Z,15.90
2023-05-11T03:18:05.853Z,16.00
2023-05-11T03:20:33.948Z,16.00
2023-05-11T03:23:00.696Z,16.00
2023-05-11T03:25:29.007Z,16.00
2023-05-11T03:27:57.312Z,16.00
2023-05-11T03:30:24.001Z,16.00
2023-05-11T03:32:50.604Z,15.90
2023-05-11T03:35:17.361Z,15.90
2023-05-11T03:37:44.597Z,15.80
2023-05-11T03:40:12.264Z,15.80
2023-05-11T03:42:39.863Z,15.80
2023-05-11T03:45:07.783Z,15.70
2023-05-11T03:47:35.966Z,15.70
2023-05-11T03:50:03.250Z,15.70
2023-05-11T03:52:30.571Z,15.80
2023-05-11T03:54:57.169Z,15.70
2023-05-11T03:57:27.543Z,15.80
2023-05-11T03:59:54.224Z,15.80
2023-05-11T04:02:21.980Z,15.80
2023-05-11T04:04:48.784Z,15.90
2023-05-11T04:07:15.638Z,15.80
2023-05-11T04:09:42.492Z,15.80
2023-05-11T04:12:10.545Z,15.80
2023-05-11T04:14:37.385Z,15.80
2023-05-11T04:17:04.178Z,15.80
2023-05-11T04:19:30.799Z,15.80
2023-05-11T04:21:57.556Z,15.90
2023-05-11T04:24:24.323Z,15.90
2023-05-11T04:26:55.529Z,15.90
2023-05-11T04:29:22.193Z,16.10
2023-05-11T04:31:48.882Z,15.90
2023-05-11T04:34:15.557Z,15.80
2023-05-11T04:36:42.163Z,15.80
2023-05-11T04:39:08.853Z,15.90
2023-05-11T04:41:35.417Z,16.00
2023-05-11T04:44:01.981Z,16.00
2023-05-11T04:46:28.682Z,15.90
2023-05-11T04:48:55.359Z,15.80
2023-05-11T04:59:20.829Z,16.20
2023-05-11T05:01:47.466Z,16.20
2023-05-11T05:04:14.288Z,16.10
2023-05-11T05:06:40.993Z,16.10
2023-05-11T05:09:07.836Z,16.30
2023-05-11T05:11:34.443Z,16.30
2023-05-11T05:14:01.014Z,16.30
2023-05-11T05:16:27.888Z,16.40
2023-05-11T05:18:55.381Z,16.40
2023-05-11T05:21:21.977Z,16.40
2023-05-11T05:23:48.678Z,16.50
2023-05-11T05:26:15.598Z,16.40
2023-05-11T05:28:42.180Z,16.40
2023-05-11T05:31:08.780Z,16.50
2023-05-11T05:33:35.499Z,16.40
2023-05-11T05:36:02.147Z,16.50
2023-05-11T05:38:28.858Z,16.70
2023-05-11T05:40:55.560Z,16.80
2023-05-11T05:43:22.208Z,16.80
2023-05-11T05:45:48.979Z,16.80
2023-05-11T05:48:15.678Z,16.90
2023-05-11T05:50:42.398Z,17.00
2023-05-11T05:53:09.131Z,17.10
2023-05-11T05:55:35.765Z,17.10
2023-05-11T05:58:02.380Z,17.00
2023-05-11T06:00:29.054Z,17.10
2023-05-11T06:02:55.853Z,17.20
2023-05-11T06:05:22.569Z,17.30
2023-05-11T06:07:58.039Z,17.40
2023-05-11T06:10:28.840Z,17.50
2023-05-11T06:12:55.677Z,17.50
2023-05-11T06:15:23.011Z,17.50
2023-05-11T06:17:49.646Z,17.50
2023-05-11T06:20:16.285Z,17.60
2023-05-11T06:22:42.987Z,17.80
2023-05-11T06:25:09.742Z,17.80
2023-05-11T06:27:36.423Z,18.00
2023-05-11T06:30:03.119Z,18.00
2023-05-11T06:32:29.731Z,18.10
2023-05-11T06:34:56.375Z,18.30
2023-05-11T06:37:22.951Z,18.50
2023-05-11T06:39:49.604Z,18.50
2023-05-11T06:42:16.278Z,18.60
2023-05-11T06:44:42.914Z,18.50
2023-05-11T06:47:09.671Z,18.60
2023-05-11T06:49:36.909Z,18.70
2023-05-11T06:52:03.766Z,18.80
2023-05-11T06:54:30.415Z,18.90
2023-05-11T06:56:57.042Z,19.00
2023-05-11T06:59:23.750Z,19.00
2023-05-11T07:01:50.859Z,19.00
2023-05-11T07:04:17.504Z,19.10
2023-05-11T07:06:44.139Z,19.10
2023-05-11T07:09:10.738Z,19.20
2023-05-11T07:11:37.464Z,19.30
2023-05-11T07:14:04.055Z,19.40
2023-05-11T07:16:30.736Z,19.50
2023-05-11T07:18:57.433Z,19.40
2023-05-11T07:21:24.028Z,19.50
2023-05-11T07:23:50.664Z,19.50
2023-05-11T07:26:17.241Z,19.60
2023-05-11T07:28:43.881Z,19.70
2023-05-11T07:31:10.687Z,19.80
2023-05-11T07:33:38.611Z,19.90
2023-05-11T07:36:06.035Z,20.00
2023-05-11T07:38:32.867Z,20.00
2023-05-11T07:40:59.795Z,20.10
2023-05-11T07:43:26.795Z,20.30
2023-05-11T07:45:53.501Z,20.50
2023-05-11T07:48:20.798Z,20.70
2023-05-11T07:50:49.460Z,20.60
2023-05-11T07:53:16.626Z,20.60
2023-05-11T07:55:43.208Z,20.60
2023-05-11T07:58:09.814Z,20.60
2023-05-11T08:00:36.693Z,20.70
2023-05-11T08:03:03.401Z,20.80
2023-05-11T08:05:30.711Z,20.80
2023-05-11T08:07:57.292Z,20.80
2023-05-11T08:10:23.923Z,20.90
2023-05-11T08:12:50.577Z,21.00
2023-05-11T08:15:17.867Z,21.00
2023-05-11T08:17:46.104Z,21.10
2023-05-11T08:20:13.285Z,21.10
2023-05-11T08:22:39.872Z,21.10
2023-05-11T08:25:06.884Z,21.00
2023-05-11T08:27:33.455Z,21.10
2023-05-11T08:30:02.358Z,21.10
2023-05-11T08:32:29.407Z,21.20
2023-05-11T08:34:56.169Z,21.20
2023-05-11T08:37:23.316Z,21.20
2023-05-11T08:39:49.970Z,21.30
2023-05-11T08:42:17.089Z,21.30
2023-05-11T08:44:44.461Z,21.40
2023-05-11T08:47:22.817Z,21.50
2023-05-11T08:49:51.094Z,21.70
2023-05-11T08:52:18.169Z,21.90
2023-05-11T08:54:45.241Z,21.70
2023-05-11T08:57:13.259Z,21.70
2023-05-11T08:59:41.181Z,21.90
2023-05-11T09:02:09.932Z,21.90
2023-05-11T09:04:37.055Z,21.80
2023-05-11T09:07:04.060Z,22.00
2023-05-11T09:09:31.067Z,22.20
2023-05-11T09:11:57.991Z,22.40
2023-05-11T09:14:27.633Z,22.60
2023-05-11T09:16:54.593Z,22.60
2023-05-11T09:19:21.891Z,22.80
2023-05-11T09:21:48.509Z,22.90
2023-05-11T09:24:15.212Z,22.90
2023-05-11T09:26:41.817Z,22.90
2023-05-11T09:29:08.722Z,22.90
2023-05-11T09:31:39.586Z,23.00
2023-05-11T09:34:16.453Z,22.90
2023-05-11T09:36:46.896Z,23.00
2023-05-11T09:39:15.824Z,23.40
2023-05-11T09:41:43.348Z,23.50
2023-05-11T09:44:11.483Z,23.80
2023-05-11T09:46:38.533Z,24.10
2023-05-11T09:49:05.696Z,24.60
2023-05-11T09:51:33.844Z,24.90
2023-05-11T09:54:01.415Z,25.30
2023-05-11T09:56:42.447Z,25.80
2023-05-11T09:59:09.160Z,26.20
2023-05-11T10:01:37.784Z,26.30
2023-05-11T10:04:13.899Z,26.30
2023-05-11T10:06:48.491Z,26.90
2023-05-11T10:09:15.910Z,27.00
2023-05-11T10:11:44.430Z,27.00
2023-05-11T10:14:14.695Z,27.10
2023-05-11T10:16:42.234Z,26.80
2023-05-11T10:19:09.057Z,26.00
2023-05-11T10:21:35.930Z,25.60
2023-05-11T10:24:03.742Z,26.20
2023-05-11T10:26:33.428Z,26.90
2023-05-11T10:29:00.949Z,26.90
2023-05-11T10:31:28.580Z,27.20
2023-05-11T10:33:55.367Z,27.80
2023-05-11T10:36:23.553Z,28.20
2023-05-11T10:38:50.136Z,28.40
2023-05-11T10:41:24.771Z,28.60
2023-05-11T10:44:03.353Z,28.40
2023-05-11T10:46:51.825Z,28.50
2023-05-11T10:49:25.968Z,28.50
2023-05-11T10:52:11.273Z,28.30
2023-05-11T10:54:37.861Z,28.60
2023-05-11T10:57:04.408Z,28.50
2023-05-11T10:59:49.886Z,28.10
2023-05-11T11:02:18.596Z,28.40
2023-05-11T11:04:46.528Z,28.40
2023-05-11T11:07:19.731Z,28.20
2023-05-11T11:10:06.311Z,27.90
2023-05-11T11:12:35.076Z,27.70
2023-05-11T11:15:06.318Z,27.70
2023-05-11T11:17:34.943Z,27.30
2023-05-11T11:20:07.348Z,26.60
2023-05-11T11:22:38.578Z,25.60
2023-05-11T11:25:06.295Z,25.40
2023-05-11T11:27:45.221Z,25.40
2023-05-11T11:30:17.411Z,25.10
2023-05-11T11:32:46.120Z,25.30
2023-05-11T11:35:31.425Z,25.40
2023-05-11T11:38:04.590Z,25.40
2023-05-11T11:40:52.822Z,25.50
2023-05-11T11:43:19.893Z,25.50
2023-05-11T11:45:50.868Z,25.30
2023-05-11T11:48:21.389Z,25.40
2023-05-11T11:50:48.631Z,25.20
2023-05-11T11:53:34.749Z,25.00
2023-05-11T11:56:01.535Z,24.70
2023-05-11T11:58:40.402Z,24.40
2023-05-11T12:01:12.022Z,24.30
2023-05-11T12:03:39.258Z,24.00
2023-05-11T12:06:07.906Z,23.90
2023-05-11T12:08:35.268Z,23.90
2023-05-11T12:11:02.690Z,23.90
2023-05-11T12:13:29.365Z,23.80
2023-05-11T12:16:08.179Z,23.70
2023-05-11T12:18:35.172Z,23.50
2023-05-11T12:21:02.295Z,23.50
2023-05-11T12:23:29.135Z,23.60
2023-05-11T12:26:05.549Z,23.60
2023-05-11T12:28:34.874Z,23.60
2023-05-11T12:31:01.758Z,23.60
2023-05-11T12:33:28.335Z,23.50
2023-05-11T12:35:55.781Z,23.40
2023-05-11T12:38:22.799Z,23.40
2023-05-11T12:40:52.870Z,23.40
2023-05-11T12:43:20.304Z,23.30
2023-05-11T12:45:47.132Z,23.50
2023-05-11T12:48:14.505Z,23.70
2023-05-11T12:50:45.682Z,23.70
2023-05-11T12:53:16.128Z,23.80
2023-05-11T12:55:43.072Z,24.00
2023-05-11T12:58:09.710Z,24.10
2023-05-11T13:00:36.490Z,24.20
2023-05-11T13:03:03.578Z,24.20
2023-05-11T13:05:30.431Z,24.60
2023-05-11T13:08:01.200Z,24.90
2023-05-11T13:10:27.870Z,24.90
2023-05-11T13:12:55.012Z,24.90
2023-05-11T13:15:22.569Z,25.00
2023-05-11T13:17:55.558Z,25.10
2023-05-11T13:20:27.265Z,25.30
2023-05-11T13:23:04.452Z,25.20
2023-05-11T13:25:31.779Z,25.10
2023-05-11T13:27:58.423Z,25.20
2023-05-11T13:30:25.103Z,25.20
2023-05-11T13:32:51.740Z,25.20
2023-05-11T13:35:18.566Z,25.40
2023-05-11T13:37:46.944Z,25.30
2023-05-11T13:40:13.978Z,25.20
2023-05-11T13:42:41.988Z,25.20
2023-05-11T13:45:08.773Z,25.30
2023-05-11T13:47:35.927Z,25.40
2023-05-11T13:50:02.729Z,25.10
2023-05-11T13:52:29.401Z,25.20
2023-05-11T13:54:56.851Z,25.30
2023-05-11T13:57:23.503Z,25.40
2023-05-11T13:59:50.460Z,25.50
2023-05-11T14:02:17.202Z,25.70
2023-05-11T14:04:43.865Z,25.80
2023-05-11T14:07:10.533Z,25.40
2023-05-11T14:09:37.228Z,25.60
2023-05-11T14:12:04.093Z,25.50
2023-05-11T14:14:30.702Z,25.50
2023-05-11T14:16:57.303Z,25.30
2023-05-11T14:19:23.947Z,25.40
2023-05-11T14:21:50.957Z,25.40
2023-05-11T14:24:17.556Z,25.40
2023-05-11T14:26:44.199Z,25.60
2023-05-11T14:29:10.846Z,25.80
2023-05-11T14:31:37.921Z,25.80
2023-05-11T14:34:04.682Z,25.90
2023-05-11T14:36:32.004Z,26.00
2023-05-11T14:38:58.613Z,25.90
2023-05-11T14:41:25.578Z,25.80
2023-05-11T14:43:52.320Z,26.00
2023-05-11T14:46:19.530Z,25.90
2023-05-11T14:48:46.379Z,25.60
2023-05-11T14:51:13.053Z,25.50
2023-05-11T14:53:39.833Z,25.50
2023-05-11T14:56:06.750Z,25.40
2023-05-11T14:58:33.341Z,25.20
2023-05-11T15:00:59.920Z,25.20
2023-05-11T15:03:26.649Z,25.10
2023-05-11T15:05:53.367Z,25.20
2023-05-11T15:08:29.719Z,25.70
2023-05-11T15:10:57.086Z,26.00
2023-05-11T15:13:24.168Z,26.30
2023-05-11T15:15:51.358Z,26.60
2023-05-11T15:18:18.256Z,27.20
2023-05-11T15:20:44.966Z,28.10
2023-05-11T15:23:16.393Z,29.10
2023-05-11T15:25:44.409Z,29.60
2023-05-11T15:28:13.960Z,30.20
2023-05-11T15:30:42.025Z,30.20
2023-05-11T15:33:09.804Z,30.00
2023-05-11T15:35:36.828Z,29.20
2023-05-11T15:38:03.634Z,28.40
2023-05-11T15:40:30.613Z,27.60
2023-05-11T15:42:58.789Z,27.00
2023-05-11T15:45:26.045Z,26.50
2023-05-11T15:47:52.858Z,26.00
2023-05-11T15:50:19.963Z,25.80
2023-05-11T15:52:47.042Z,25.50
2023-05-11T15:55:13.669Z,25.50
2023-05-11T15:57:40.264Z,25.30
2023-05-11T16:00:10.069Z,25.30
2023-05-11T16:02:36.851Z,25.10
2023-05-11T16:05:03.566Z,24.90
2023-05-11T16:07:30.208Z,24.80
2023-05-11T16:09:56.950Z,24.60
2023-05-11T16:12:23.569Z,24.30
2023-05-11T16:14:50.215Z,24.20
2023-05-11T16:17:17.004Z,24.10
2023-05-11T16:19:43.675Z,24.00
2023-05-11T16:22:10.240Z,23.80
2023-05-11T16:24:36.856Z,23.60
2023-05-11T16:27:03.968Z,23.60
2023-05-11T16:29:30.583Z,23.40
2023-05-11T16:31:57.196Z,23.40
2023-05-11T16:34:23.847Z,23.30
2023-05-11T16:36:50.442Z,23.40
2023-05-11T16:39:17.057Z,23.30
2023-05-11T16:41:43.792Z,23.20
2023-05-11T16:44:10.422Z,23.10
2023-05-11T16:46:37.065Z,23.10
2023-05-11T16:49:03.728Z,23.20
2023-05-11T16:51:30.410Z,23.10
2023-05-11T16:53:57.218Z,23.30
2023-05-11T16:56:23.941Z,23.00
2023-05-11T16:58:50.531Z,22.90
2023-05-11T17:01:17.198Z,23.00
2023-05-11T17:03:43.867Z,23.10
2023-05-11T17:06:13.540Z,23.00
2023-05-11T17:08:40.583Z,22.90
2023-05-11T17:11:07.430Z,22.90
2023-05-11T17:13:34.137Z,23.10
2023-05-11T17:16:00.883Z,23.10
2023-05-11T17:18:27.766Z,23.00
2023-05-11T17:20:55.939Z,22.90
2023-05-11T17:23:23.001Z,22.80
2023-05-11T17:25:49.754Z,22.70
2023-05-11T17:28:16.591Z,22.80
2023-05-11T17:30:48.780Z,22.80
2023-05-11T17:33:16.317Z,22.90
2023-05-11T17:36:09.409Z,22.70
2023-05-11T17:42:04.218Z,22.50
2023-05-11T17:44:30.867Z,22.60
2023-05-11T17:46:57.846Z,22.60
2023-05-11T17:49:24.469Z,22.60
2023-05-11T17:51:51.162Z,22.50
2023-05-11T17:54:17.811Z,22.50
2023-05-11T17:56:44.526Z,22.40
2023-05-11T17:59:11.174Z,22.30
2023-05-11T18:01:37.793Z,22.30
2023-05-11T18:04:04.808Z,22.30
2023-05-11T18:06:31.703Z,22.30
2023-05-11T18:08:59.078Z,22.30
2023-05-11T18:11:26.240Z,22.20
2023-05-11T18:13:52.954Z,22.20
2023-05-11T18:16:19.727Z,22.10
2023-05-11T18:18:46.505Z,22.20
2023-05-11T18:21:13.261Z,22.10
2023-05-11T18:23:39.894Z,22.10
2023-05-11T18:26:06.770Z,22.00
2023-05-11T18:28:33.432Z,21.90
2023-05-11T18:31:00.111Z,22.00
2023-05-11T18:33:26.935Z,22.00
2023-05-11T18:35:53.725Z,21.90
2023-05-11T18:38:20.392Z,21.80
2023-05-11T18:40:47.387Z,21.80
2023-05-11T18:43:14.122Z,21.60
2023-05-11T18:45:41.028Z,21.80
2023-05-11T18:48:07.882Z,21.80
2023-05-11T18:50:34.677Z,21.80
2023-05-11T18:53:02.024Z,21.90
2023-05-11T18:55:30.907Z,21.80
2023-05-11T18:57:57.914Z,21.80
2023-05-11T19:00:24.643Z,21.80
2023-05-11T19:02:51.958Z,21.80
2023-05-11T19:05:19.311Z,21.70
2023-05-11T19:07:46.300Z,21.60
2023-05-11T19:10:12.951Z,21.60
2023-05-11T19:12:39.542Z,21.50
2023-05-11T19:15:06.474Z,21.60
2023-05-11T19:17:33.391Z,21.60
2023-05-11T19:19:59.981Z,21.50
2023-05-11T19:22:26.628Z,21.50
2023-05-11T19:24:53.274Z,21.50
2023-05-11T19:27:19.933Z,21.60
2023-05-11T19:29:48.942Z,21.50
2023-05-11T19:32:15.626Z,21.50
2023-05-11T19:34:42.261Z,21.40
2023-05-11T19:37:09.164Z,21.40
2023-05-11T19:39:35.989Z,21.30
2023-05-11T19:42:02.590Z,21.30
2023-05-11T19:44:32.854Z,21.20
2023-05-11T19:46:59.507Z,21.10
2023-05-11T19:49:26.145Z,21.10
2023-05-11T19:51:52.803Z,21.10
2023-05-11T19:54:19.430Z,21.20
2023-05-11T19:56:46.684Z,21.10
2023-05-11T19:59:13.255Z,21.10
2023-05-11T20:01:39.913Z,21.10
2023-05-11T20:04:06.594Z,21.00
2023-05-11T20:06:33.431Z,21.10
2023-05-11T20:09:00.134Z,20.90
2023-05-11T20:11:26.765Z,21.00
2023-05-11T20:13:53.770Z,21.00
2023-05-11T20:16:20.558Z,20.90
2023-05-11T20:18:47.359Z,21.00
2023-05-11T20:21:14.020Z,20.90
2023-05-11T20:23:40.607Z,20.90
2023-05-11T20:26:07.251Z,20.90
2023-05-11T20:28:33.889Z,20.90
2023-05-11T20:31:00.523Z,20.90
2023-05-11T20:35:56.883Z,20.90
2023-05-11T20:38:23.522Z,20.90
2023-05-11T20:40:50.102Z,20.90
2023-05-11T20:43:16.805Z,20.80
2023-05-11T20:45:43.747Z,20.70
2023-05-11T20:48:10.838Z,20.80
2023-05-11T20:50:39.180Z,20.60
2023-05-11T20:53:06.044Z,20.60
2023-05-11T20:55:32.797Z,20.70
2023-05-11T20:57:59.626Z,20.60
2023-05-11T21:00:26.307Z,20.70
2023-05-11T21:02:53.122Z,20.70
2023-05-11T21:05:19.920Z,20.60
2023-05-11T21:07:46.539Z,20.60
2023-05-11T21:10:13.212Z,20.60
2023-05-11T21:12:39.817Z,20.70
2023-05-11T21:15:07.307Z,20.70
2023-05-11T21:17:34.252Z,20.70
2023-05-11T21:20:01.891Z,20.50
2023-05-11T21:22:28.920Z,20.60
2023-05-11T21:24:55.526Z,20.60
2023-05-11T21:27:22.201Z,20.70
2023-05-11T21:29:49.163Z,20.60
2023-05-11T21:32:15.848Z,20.50
2023-05-11T21:34:42.542Z,20.40
2023-05-11T21:37:09.264Z,20.30
2023-05-11T21:39:36.050Z,20.20
2023-05-11T21:42:02.841Z,20.20
2023-05-11T21:44:29.753Z,20.10
2023-05-11T21:46:56.456Z,20.10
2023-05-11T21:49:23.164Z,20.00
2023-05-11T21:51:50.216Z,20.10
2023-05-11T21:54:16.805Z,20.10
2023-05-11T21:56:43.399Z,20.10
2023-05-11T21:59:10.146Z,20.10
2023-05-11T22:01:36.753Z,20.10
2023-05-11T22:04:03.561Z,20.10
2023-05-11T22:06:30.875Z,20.00
2023-05-11T22:08:57.422Z,20.10
2023-05-11T22:11:24.301Z,20.00
2023-05-11T22:13:51.268Z,19.80
2023-05-11T22:16:18.890Z,19.80
2023-05-11T22:18:45.629Z,19.80
2023-05-11T22:21:12.638Z,19.80
2023-05-11T22:23:39.213Z,19.80
2023-05-11T22:26:05.841Z,19.80
2023-05-11T22:28:34.040Z,19.70
2023-05-11T22:31:05.768Z,19.70
2023-05-11T22:33:32.396Z,20.50
2023-05-11T22:35:58.959Z,19.70
2023-05-11T22:38:25.564Z,19.70
2023-05-11T22:40:52.285Z,19.70
2023-05-11T22:43:21.703Z,19.70
2023-05-11T22:45:48.302Z,19.70
2023-05-11T22:48:14.975Z,19.70
2023-05-11T22:50:49.321Z,19.60
2023-05-11T22:53:16.487Z,19.50
2023-05-11T22:55:43.042Z,19.30
2023-05-11T22:58:09.635Z,19.30
2023-05-11T23:00:36.349Z,19.30
2023-05-11T23:03:03.614Z,19.20
2023-05-11T23:05:30.319Z,19.30
2023-05-11T23:07:59.662Z,19.20
2023-05-11T23:10:27.333Z,19.20
2023-05-11T23:12:54.204Z,19.20
2023-05-11T23:15:21.086Z,19.20
2023-05-11T23:17:47.770Z,19.30
2023-05-11T23:20:14.451Z,19.10
2023-05-11T23:22:41.049Z,19.20
2023-05-11T23:25:07.950Z,19.20
2023-05-11T23:27:34.518Z,19.10
2023-05-11T23:30:01.056Z,19.10
2023-05-11T23:32:27.843Z,19.10
2023-05-11T23:34:54.513Z,19.10
2023-05-11T23:37:22.175Z,18.90
2023-05-11T23:39:48.800Z,19.00
2023-05-11T23:42:15.442Z,19.00
2023-05-11T23:44:42.220Z,19.00
2023-05-11T23:47:08.898Z,19.00
2023-05-11T23:49:35.978Z,19.00
2023-05-11T23:52:02.561Z,18.90
2023-05-11T23:54:29.159Z,18.70
2023-05-11T23:56:55.809Z,18.70
2023-05-11T23:59:22.424Z,18.80
